Terminal Aerodrome Forecast
Issued by NWS Sioux Falls, SD

Home | Current Version | Previous Version | Graphics & Text | Print | Product List | Glossary Off
Versions: 1 2 3 4 5 6 7 8 9 10 11 12 13 14 15 16 17 18 19 20 21 22 23 24 25 26 27 28

643
FTUS43 KFSD 231120
TAFSUX
TAF
KSUX 231120Z 2312/2412 33010KT P6SM BKN120
     FM231500 32015G23KT P6SM BKN090
     FM231900 32018G27KT P6SM SCT040
     FM240100 32010KT P6SM FEW060
     FM240400 31006KT P6SM FEW090
      AMD NOT SKED=

USA.gov is the U.S. government's official web portal to all federal, state and local government web resources and services.